createdAt,value
2023-02-16T00:01:25.416Z,19.80
2023-02-16T00:03:54.435Z,19.67
2023-02-16T00:06:22.931Z,17.98
2023-02-16T00:08:52.612Z,18.73
2023-02-16T00:11:52.274Z,19.98
2023-02-16T00:14:23.359Z,19.25
2023-02-16T00:16:50.919Z,19.35
2023-02-16T00:19:25.044Z,18.88
2023-02-16T00:21:54.844Z,18.33
2023-02-16T00:24:23.045Z,19.40
2023-02-16T00:26:50.263Z,20.52
2023-02-16T00:29:27.320Z,20.10
2023-02-16T00:31:55.864Z,17.83
2023-02-16T00:34:30.647Z,19.77
2023-02-16T00:36:59.202Z,20.20
2023-02-16T00:39:26.981Z,19.20
2023-02-16T00:41:59.890Z,20.48
2023-02-16T00:44:32.669Z,18.15
2023-02-16T00:47:19.828Z,17.33
2023-02-16T00:49:48.365Z,17.65
2023-02-16T00:52:18.501Z,19.55
2023-02-16T00:54:45.682Z,16.73
2023-02-16T00:57:16.617Z,16.88
2023-02-16T00:59:43.942Z,18.25
2023-02-16T01:02:11.292Z,16.83
2023-02-16T01:04:38.523Z,17.95
2023-02-16T01:07:39.160Z,16.45
2023-02-16T01:10:25.433Z,17.23
2023-02-16T01:15:22.626Z,16.30
2023-02-16T01:17:49.775Z,17.60
2023-02-16T01:20:19.396Z,17.58
2023-02-16T01:22:46.565Z,17.60
2023-02-16T01:25:14.773Z,17.05
2023-02-16T01:27:42.270Z,17.33
2023-02-16T01:30:18.159Z,18.73
2023-02-16T01:32:51.308Z,16.90
2023-02-16T01:35:23.238Z,17.02
2023-02-16T01:37:50.513Z,17.08
2023-02-16T01:40:23.026Z,16.48
2023-02-16T01:42:52.284Z,17.95
2023-02-16T01:45:33.698Z,16.60
2023-02-16T01:48:06.984Z,17.27
2023-02-16T01:50:42.667Z,16.00
2023-02-16T01:55:43.730Z,16.95
2023-02-16T01:58:29.592Z,18.40
2023-02-16T02:00:56.754Z,19.83
2023-02-16T02:03:48.837Z,19.33
2023-02-16T02:06:28.160Z,19.02
2023-02-16T02:09:13.705Z,19.30
2023-02-16T02:11:46.654Z,18.23
2023-02-16T02:14:27.620Z,18.80
2023-02-16T02:17:00.215Z,19.63
2023-02-16T02:19:27.823Z,19.50
2023-02-16T02:22:36.169Z,19.65
2023-02-16T02:25:48.473Z,18.85
2023-02-16T02:28:31.352Z,18.23
2023-02-16T02:31:03.346Z,17.60
2023-02-16T02:33:49.375Z,18.08
2023-02-16T02:36:40.680Z,16.70
2023-02-16T02:39:41.312Z,18.33
2023-02-16T02:42:43.756Z,18.15
2023-02-16T02:45:18.958Z,17.23
2023-02-16T02:47:47.966Z,17.85
2023-02-16T02:51:04.790Z,16.52
2023-02-16T02:53:33.756Z,16.65
2023-02-16T02:56:21.756Z,16.65
2023-02-16T02:59:09.386Z,16.55
2023-02-16T03:01:38.097Z,17.00
2023-02-16T03:04:06.315Z,16.10
2023-02-16T03:06:46.796Z,16.67
2023-02-16T03:09:15.334Z,16.35
2023-02-16T03:12:01.726Z,16.98
2023-02-16T03:14:42.005Z,16.15
2023-02-16T03:17:35.053Z,16.65
2023-02-16T03:20:24.685Z,16.02
2023-02-16T03:23:10.293Z,15.18
2023-02-16T03:25:57.878Z,16.02
2023-02-16T03:28:45.884Z,14.88
2023-02-16T03:31:17.943Z,16.05
2023-02-16T03:33:46.076Z,16.73
2023-02-16T03:36:13.471Z,16.48
2023-02-16T03:38:40.805Z,16.20
2023-02-16T03:41:07.977Z,15.90
2023-02-16T03:43:35.180Z,16.40
2023-02-16T03:46:02.387Z,17.23
2023-02-16T03:48:29.605Z,15.57
2023-02-16T03:50:56.765Z,15.93
2023-02-16T03:53:24.429Z,16.13
2023-02-16T03:55:51.616Z,15.50
2023-02-16T03:58:21.007Z,14.75
2023-02-16T04:00:48.935Z,15.32
2023-02-16T04:03:16.405Z,15.93
2023-02-16T04:05:44.315Z,15.85
2023-02-16T04:08:12.022Z,14.70
2023-02-16T04:10:39.508Z,15.90
2023-02-16T04:13:06.762Z,16.48
2023-02-16T04:15:34.310Z,14.68
2023-02-16T04:18:01.968Z,14.55
2023-02-16T04:20:31.430Z,14.15
2023-02-16T04:22:58.924Z,16.60
2023-02-16T04:25:26.483Z,15.82
2023-02-16T04:27:53.978Z,15.23
2023-02-16T04:30:29.694Z,15.20
2023-02-16T04:35:23.992Z,16.38
2023-02-16T04:37:51.205Z,16.88
2023-02-16T04:40:18.722Z,15.52
2023-02-16T04:42:46.218Z,16.15
2023-02-16T04:45:14.079Z,16.63
2023-02-16T04:47:41.479Z,14.45
2023-02-16T04:50:09.153Z,13.77
2023-02-16T04:52:36.820Z,15.82
2023-02-16T04:55:05.703Z,16.00
2023-02-16T04:57:32.921Z,16.13
2023-02-16T05:00:00.208Z,13.70
2023-02-16T05:02:27.393Z,15.60
2023-02-16T05:04:54.621Z,16.25
2023-02-16T05:07:21.778Z,17.52
2023-02-16T05:09:48.938Z,15.23
2023-02-16T05:12:34.879Z,15.25
2023-02-16T05:15:02.030Z,15.32
2023-02-16T05:17:29.177Z,15.85
2023-02-16T05:19:59.222Z,15.43
2023-02-16T05:22:28.893Z,14.48
2023-02-16T05:24:56.120Z,15.07
2023-02-16T05:27:25.382Z,15.93
2023-02-16T05:29:52.663Z,15.73
2023-02-16T05:32:20.408Z,15.05
2023-02-16T05:34:47.987Z,15.40
2023-02-16T05:37:16.574Z,17.38
2023-02-16T05:39:44.228Z,15.85
2023-02-16T05:42:11.503Z,14.88
2023-02-16T05:44:38.755Z,14.93
2023-02-16T05:47:05.937Z,15.27
2023-02-16T05:49:33.073Z,15.35
2023-02-16T05:52:00.172Z,16.02
2023-02-16T05:54:28.064Z,15.90
2023-02-16T05:56:55.652Z,15.68
2023-02-16T05:59:23.012Z,16.35
2023-02-16T06:01:52.230Z,16.80
2023-02-16T06:04:21.115Z,16.05
2023-02-16T06:06:48.410Z,17.58
2023-02-16T06:09:15.634Z,14.90
2023-02-16T06:11:43.240Z,17.38
2023-02-16T06:14:16.421Z,17.55
2023-02-16T06:16:45.856Z,17.92
2023-02-16T06:19:13.442Z,17.05
2023-02-16T06:21:40.819Z,16.13
2023-02-16T06:24:09.514Z,15.85
2023-02-16T06:26:37.276Z,16.05
2023-02-16T06:29:04.970Z,16.42
2023-02-16T06:31:35.830Z,17.75
2023-02-16T06:34:04.175Z,15.95
2023-02-16T06:36:31.637Z,15.57
2023-02-16T06:38:58.900Z,17.60
2023-02-16T06:41:31.973Z,15.88
2023-02-16T06:44:00.684Z,15.70
2023-02-16T06:46:28.171Z,15.82
2023-02-16T06:48:55.756Z,16.40
2023-02-16T06:51:23.225Z,17.15
2023-02-16T06:53:50.464Z,17.42
2023-02-16T06:56:17.770Z,16.90
2023-02-16T06:58:45.065Z,17.02
2023-02-16T07:01:12.566Z,17.40
2023-02-16T07:03:39.953Z,17.75
2023-02-16T07:06:07.225Z,18.13
2023-02-16T07:08:35.683Z,16.85
2023-02-16T07:11:03.396Z,18.15
2023-02-16T07:13:30.720Z,15.80
2023-02-16T07:15:57.942Z,17.55
2023-02-16T07:18:25.083Z,17.60
2023-02-16T07:20:52.325Z,17.33
2023-02-16T07:23:19.501Z,17.00
2023-02-16T07:25:47.264Z,17.92
2023-02-16T07:28:14.572Z,19.02
2023-02-16T07:30:42.237Z,17.88
2023-02-16T07:33:10.139Z,18.08
2023-02-16T07:35:37.532Z,18.27
2023-02-16T07:38:05.844Z,20.08
2023-02-16T07:40:33.141Z,18.02
2023-02-16T07:43:01.389Z,18.65
2023-02-16T07:45:29.071Z,18.77
2023-02-16T07:47:56.282Z,17.90
2023-02-16T07:50:23.466Z,18.40
2023-02-16T07:52:50.659Z,18.63
2023-02-16T07:55:17.948Z,19.38
2023-02-16T07:57:45.114Z,21.20
2023-02-16T08:00:12.449Z,19.58
2023-02-16T08:02:40.492Z,19.88
2023-02-16T08:05:08.073Z,20.02
2023-02-16T08:07:35.671Z,20.80
2023-02-16T08:10:02.891Z,20.88
2023-02-16T08:12:30.216Z,20.05
2023-02-16T08:14:57.835Z,21.25
2023-02-16T08:17:25.289Z,21.00
2023-02-16T08:19:52.476Z,22.33
2023-02-16T08:22:19.722Z,20.75
2023-02-16T08:24:46.882Z,20.80
2023-02-16T08:27:14.066Z,20.85
2023-02-16T08:29:41.946Z,22.63
2023-02-16T08:32:12.989Z,21.45
2023-02-16T08:34:43.235Z,22.13
2023-02-16T08:37:12.590Z,23.45
2023-02-16T08:39:40.572Z,23.20
2023-02-16T08:42:08.418Z,21.70
2023-02-16T08:44:35.790Z,24.20
2023-02-16T08:47:03.756Z,21.77
2023-02-16T08:49:30.989Z,21.80
2023-02-16T08:51:58.762Z,23.48
2023-02-16T08:54:30.177Z,22.20
2023-02-16T08:56:58.973Z,24.55
2023-02-16T08:59:28.857Z,23.50
2023-02-16T09:02:00.217Z,22.60
2023-02-16T09:04:29.093Z,24.13
2023-02-16T09:06:57.947Z,24.60
2023-02-16T09:09:26.314Z,25.08
2023-02-16T09:11:53.589Z,23.63
2023-02-16T09:14:21.470Z,24.02
2023-02-16T09:16:48.952Z,24.17
2023-02-16T09:19:20.566Z,25.20
2023-02-16T09:21:48.573Z,24.13
2023-02-16T09:24:15.977Z,26.50
2023-02-16T09:26:44.611Z,24.55
2023-02-16T09:29:13.818Z,24.63
2023-02-16T09:31:42.242Z,25.67
2023-02-16T09:34:21.762Z,24.67
2023-02-16T09:36:49.722Z,26.15
2023-02-16T09:39:17.316Z,24.90
2023-02-16T09:42:05.124Z,25.58
2023-02-16T09:44:54.776Z,25.60
2023-02-16T09:47:30.996Z,25.17
2023-02-16T09:50:06.352Z,24.75
2023-02-16T09:52:37.761Z,26.63
2023-02-16T09:55:14.721Z,25.75
2023-02-16T09:57:59.081Z,24.23
2023-02-16T10:00:35.896Z,24.08
2023-02-16T10:03:32.324Z,25.48
2023-02-16T10:06:27.641Z,23.67
2023-02-16T10:09:11.451Z,23.33
2023-02-16T10:11:42.060Z,25.77
2023-02-16T10:14:25.624Z,25.23
2023-02-16T10:17:12.345Z,25.48
2023-02-16T10:19:43.855Z,24.75
2023-02-16T10:22:17.337Z,24.90
2023-02-16T10:25:01.719Z,25.42
2023-02-16T10:27:37.835Z,25.52
2023-02-16T10:30:19.902Z,23.92
2023-02-16T10:32:58.236Z,24.15
2023-02-16T10:35:32.692Z,24.98
2023-02-16T10:38:12.954Z,24.92
2023-02-16T10:40:46.708Z,24.70
2023-02-16T10:43:34.115Z,25.02
2023-02-16T10:46:01.830Z,24.83
2023-02-16T10:48:29.255Z,26.60
2023-02-16T10:51:03.709Z,23.90
2023-02-16T10:53:40.119Z,25.23
2023-02-16T10:56:25.885Z,25.17
2023-02-16T10:58:53.294Z,24.92
2023-02-16T11:01:22.444Z,26.42
2023-02-16T11:03:50.659Z,26.52
2023-02-16T11:06:20.498Z,24.35
2023-02-16T11:08:54.219Z,24.88
2023-02-16T11:11:22.889Z,23.95
2023-02-16T11:13:50.575Z,24.40
2023-02-16T11:16:23.017Z,25.27
2023-02-16T11:18:59.296Z,25.45
2023-02-16T11:22:02.312Z,25.58
2023-02-16T11:24:32.079Z,25.30
2023-02-16T11:27:04.165Z,24.90
2023-02-16T11:29:31.588Z,22.67
2023-02-16T11:31:59.738Z,24.40
2023-02-16T11:34:49.691Z,24.80
2023-02-16T11:37:31.898Z,24.65
2023-02-16T11:40:02.029Z,25.17
2023-02-16T11:42:30.188Z,24.98
2023-02-16T11:44:58.408Z,24.17
2023-02-16T11:47:28.565Z,25.45
2023-02-16T11:50:21.004Z,24.65
2023-02-16T11:52:53.900Z,22.88
2023-02-16T11:55:27.310Z,22.88
2023-02-16T11:57:56.512Z,22.77
2023-02-16T12:00:26.622Z,24.58
2023-02-16T12:03:10.162Z,23.00
2023-02-16T12:06:12.130Z,21.92
2023-02-16T12:09:03.063Z,22.55
2023-02-16T12:11:39.614Z,22.05
2023-02-16T12:14:51.668Z,22.13
2023-02-16T12:17:50.027Z,21.80
2023-02-16T12:20:31.972Z,22.33
2023-02-16T12:23:21.870Z,22.10
2023-02-16T12:26:28.422Z,22.42
2023-02-16T12:29:29.597Z,21.05
2023-02-16T12:32:20.827Z,20.88
2023-02-16T12:35:15.869Z,21.38
2023-02-16T12:37:52.337Z,20.38
2023-02-16T12:40:42.856Z,22.35
2023-02-16T12:43:18.606Z,20.98
2023-02-16T12:45:46.428Z,20.58
2023-02-16T12:48:16.391Z,22.35
2023-02-16T12:50:44.330Z,22.20
2023-02-16T12:53:14.581Z,22.80
2023-02-16T12:55:43.089Z,21.27
2023-02-16T12:58:26.478Z,21.33
2023-02-16T13:01:01.017Z,20.23
2023-02-16T13:03:46.543Z,22.13
2023-02-16T13:06:15.755Z,21.00
2023-02-16T13:08:56.155Z,20.38
2023-02-16T13:11:41.477Z,19.63
2023-02-16T13:14:17.082Z,20.45
2023-02-16T13:16:47.342Z,18.92
2023-02-16T13:19:15.475Z,20.63
2023-02-16T13:21:54.457Z,20.08
2023-02-16T13:24:43.068Z,20.60
2023-02-16T13:27:34.817Z,19.58
2023-02-16T13:30:35.375Z,20.33
2023-02-16T13:33:24.425Z,19.60
2023-02-16T13:36:18.957Z,18.65
2023-02-16T13:39:09.226Z,18.88
2023-02-16T13:41:55.567Z,20.13
2023-02-16T13:44:28.587Z,19.75
2023-02-16T13:46:56.349Z,21.67
2023-02-16T13:49:30.007Z,20.15
2023-02-16T13:51:57.933Z,19.42
2023-02-16T13:54:40.435Z,20.08
2023-02-16T13:57:14.457Z,18.88
2023-02-16T13:59:49.969Z,15.43
2023-02-16T14:02:59.320Z,18.65
2023-02-16T14:05:29.574Z,19.60
2023-02-16T14:08:27.504Z,18.20
2023-02-16T14:10:55.268Z,18.98
2023-02-16T14:13:43.198Z,19.85
2023-02-16T14:16:22.443Z,18.58
2023-02-16T14:19:05.190Z,17.90
2023-02-16T14:21:42.842Z,19.40
2023-02-16T14:24:26.056Z,18.88
2023-02-16T14:27:02.826Z,19.23
2023-02-16T14:29:32.753Z,19.10
2023-02-16T14:32:07.220Z,17.30
2023-02-16T14:34:40.998Z,17.23
2023-02-16T14:37:29.618Z,18.50
2023-02-16T14:40:09.608Z,18.17
2023-02-16T14:42:36.783Z,18.02
2023-02-16T14:45:28.557Z,17.77
2023-02-16T14:48:35.792Z,18.25
2023-02-16T14:51:40.352Z,18.52
2023-02-16T14:54:31.702Z,18.13
2023-02-16T14:57:12.727Z,17.55
2023-02-16T14:59:52.669Z,17.75
2023-02-16T15:02:28.447Z,18.35
2023-02-16T15:04:56.188Z,17.65
2023-02-16T15:07:24.623Z,17.33
2023-02-16T15:09:57.276Z,16.98
2023-02-16T15:12:29.457Z,17.55
2023-02-16T15:15:02.753Z,18.00
2023-02-16T15:17:39.363Z,16.52
2023-02-16T15:20:27.610Z,17.88
2023-02-16T15:23:01.174Z,16.00
2023-02-16T15:25:33.927Z,17.67
2023-02-16T15:28:17.691Z,16.58
2023-02-16T15:30:58.977Z,17.48
2023-02-16T15:33:32.834Z,17.55
2023-02-16T15:36:13.465Z,17.63
2023-02-16T15:38:59.005Z,14.95
2023-02-16T15:41:30.133Z,14.98
2023-02-16T15:43:58.586Z,15.00
2023-02-16T15:46:34.482Z,16.50
2023-02-16T15:49:27.555Z,16.08
2023-02-16T15:51:56.592Z,16.33
2023-02-16T15:54:35.597Z,16.27
2023-02-16T15:57:48.021Z,15.70
2023-02-16T16:00:19.388Z,16.75
2023-02-16T16:02:49.226Z,16.40
2023-02-16T16:05:28.275Z,16.20
2023-02-16T16:07:57.178Z,18.02
2023-02-16T16:10:28.540Z,16.38
2023-02-16T16:13:00.907Z,16.35
2023-02-16T16:15:29.425Z,17.08
2023-02-16T16:18:00.815Z,15.30
2023-02-16T16:20:31.188Z,16.77
2023-02-16T16:23:01.751Z,16.48
2023-02-16T16:25:38.931Z,17.45
2023-02-16T16:28:08.141Z,15.40
2023-02-16T16:30:37.076Z,16.17
2023-02-16T16:33:10.241Z,15.35
2023-02-16T16:35:43.270Z,16.67
2023-02-16T16:38:34.857Z,16.90
2023-02-16T16:41:03.438Z,17.60
2023-02-16T16:43:38.355Z,16.95
2023-02-16T16:46:35.011Z,15.90
2023-02-16T16:49:06.223Z,15.35
2023-02-16T16:51:33.400Z,16.80
2023-02-16T16:54:25.136Z,15.38
2023-02-16T16:56:52.457Z,16.90
2023-02-16T16:59:19.783Z,17.30
2023-02-16T17:01:49.945Z,16.38
2023-02-16T17:04:17.161Z,16.85
2023-02-16T17:06:44.357Z,16.92
2023-02-16T17:09:11.549Z,16.00
2023-02-16T17:11:38.816Z,16.40
2023-02-16T17:14:13.296Z,16.38
2023-02-16T17:16:43.293Z,17.00
2023-02-16T17:19:14.911Z,17.08
2023-02-16T17:21:42.854Z,17.40
2023-02-16T17:24:12.538Z,16.38
2023-02-16T17:26:40.233Z,18.35
2023-02-16T17:29:08.253Z,17.33
2023-02-16T17:31:35.798Z,17.52
2023-02-16T17:34:03.154Z,18.05
2023-02-16T17:36:30.310Z,17.67
2023-02-16T17:38:57.938Z,19.23
2023-02-16T17:41:29.398Z,18.17
2023-02-16T17:43:57.019Z,17.35
2023-02-16T17:46:25.468Z,19.35
2023-02-16T17:48:55.316Z,19.50
2023-02-16T17:51:24.503Z,18.90
2023-02-16T17:53:51.772Z,16.98
2023-02-16T17:56:20.949Z,18.80
2023-02-16T17:58:48.489Z,17.40
2023-02-16T18:01:16.835Z,17.55
2023-02-16T18:03:44.330Z,17.25
2023-02-16T18:06:16.850Z,17.83
2023-02-16T18:08:44.909Z,17.77
2023-02-16T18:11:12.796Z,19.15
2023-02-16T18:13:40.145Z,19.33
2023-02-16T18:16:07.961Z,19.67
2023-02-16T18:18:38.921Z,18.10
2023-02-16T18:21:06.521Z,18.27
2023-02-16T18:23:33.961Z,20.10
2023-02-16T18:26:01.150Z,18.30
2023-02-16T18:28:33.288Z,19.65
2023-02-16T18:31:01.028Z,19.40
2023-02-16T18:33:28.313Z,19.02
2023-02-16T18:35:57.429Z,19.77
2023-02-16T18:38:25.295Z,18.08
2023-02-16T18:40:54.081Z,19.00
2023-02-16T18:43:22.132Z,19.92
2023-02-16T18:45:49.833Z,19.73
2023-02-16T18:48:17.112Z,20.83
2023-02-16T18:50:44.775Z,19.05
2023-02-16T18:53:12.000Z,19.08
2023-02-16T18:55:39.466Z,19.67
2023-02-16T18:58:08.232Z,19.95
2023-02-16T19:00:36.765Z,20.85
2023-02-16T19:03:04.301Z,19.52
2023-02-16T19:05:32.274Z,20.08
2023-02-16T19:07:59.557Z,20.92
2023-02-16T19:10:27.400Z,19.95
2023-02-16T19:12:54.606Z,19.58
2023-02-16T19:15:22.145Z,19.55
2023-02-16T19:17:49.320Z,19.80
2023-02-16T19:20:18.555Z,18.90
2023-02-16T19:22:46.511Z,19.30
2023-02-16T19:25:14.328Z,19.17
2023-02-16T19:27:41.681Z,20.73
2023-02-16T19:30:09.213Z,19.83
2023-02-16T19:32:36.810Z,20.92
2023-02-16T19:35:04.262Z,19.85
2023-02-16T19:37:31.455Z,21.05
2023-02-16T19:39:58.570Z,19.02
2023-02-16T19:42:26.094Z,19.20
2023-02-16T19:44:53.225Z,19.70
2023-02-16T19:47:20.428Z,19.67
2023-02-16T19:49:47.602Z,19.40
2023-02-16T19:52:14.743Z,17.95
2023-02-16T19:54:41.948Z,19.17
2023-02-16T19:57:09.231Z,19.15
2023-02-16T19:59:36.444Z,17.50
2023-02-16T20:02:03.790Z,18.00
2023-02-16T20:04:30.938Z,18.00
2023-02-16T20:06:58.266Z,19.27
2023-02-16T20:09:25.429Z,19.00
2023-02-16T20:11:52.612Z,18.95
2023-02-16T20:14:19.817Z,18.30
2023-02-16T20:16:47.826Z,17.63
2023-02-16T20:19:14.990Z,17.73
2023-02-16T20:21:44.146Z,19.33
2023-02-16T20:24:11.521Z,17.90
2023-02-16T20:26:41.420Z,17.48
2023-02-16T20:29:11.467Z,19.30
2023-02-16T20:31:49.249Z,17.25
2023-02-16T20:34:16.512Z,18.33
2023-02-16T20:36:44.281Z,18.35
2023-02-16T20:39:11.474Z,17.58
2023-02-16T20:41:39.160Z,17.50
2023-02-16T20:44:06.801Z,17.90
2023-02-16T20:46:34.361Z,17.48
2023-02-16T20:49:01.600Z,17.77
2023-02-16T20:51:28.756Z,18.50
2023-02-16T20:53:56.197Z,18.85
2023-02-16T20:56:24.779Z,18.10
2023-02-16T20:58:53.917Z,17.77
2023-02-16T21:01:28.589Z,17.60
2023-02-16T21:03:57.141Z,17.88
2023-02-16T21:06:24.663Z,18.30
2023-02-16T21:08:51.905Z,18.05
2023-02-16T21:11:19.358Z,17.88
2023-02-16T21:13:46.858Z,18.02
2023-02-16T21:16:14.868Z,19.10
2023-02-16T21:18:42.306Z,17.70
2023-02-16T21:21:12.224Z,19.17
2023-02-16T21:23:39.349Z,17.92
2023-02-16T21:26:06.760Z,18.63
2023-02-16T21:28:34.234Z,17.35
2023-02-16T21:31:10.804Z,18.95
2023-02-16T21:33:38.282Z,19.10
2023-02-16T21:36:14.652Z,18.08
2023-02-16T21:38:42.125Z,19.35
2023-02-16T21:41:25.662Z,18.88
2023-02-16T21:44:03.253Z,18.30
2023-02-16T21:46:33.556Z,18.92
2023-02-16T21:49:00.793Z,18.73
2023-02-16T21:51:34.029Z,20.27
2023-02-16T21:54:01.410Z,20.10
2023-02-16T21:56:39.971Z,19.38
2023-02-16T21:59:09.380Z,20.60
2023-02-16T22:01:39.521Z,20.80
2023-02-16T22:04:06.855Z,20.58
2023-02-16T22:06:37.430Z,20.48
2023-02-16T22:09:07.151Z,21.35
2023-02-16T22:11:34.361Z,20.13
2023-02-16T22:14:02.820Z,21.58
2023-02-16T22:16:32.095Z,20.27
2023-02-16T22:19:01.584Z,20.20
2023-02-16T22:21:29.600Z,19.73
2023-02-16T22:23:57.357Z,19.83
2023-02-16T22:26:28.633Z,21.08
2023-02-16T22:28:56.225Z,20.52
2023-02-16T22:31:25.489Z,21.80
2023-02-16T22:34:00.453Z,19.33
2023-02-16T22:36:28.153Z,21.08
2023-02-16T22:38:55.530Z,20.00
2023-02-16T22:41:23.598Z,20.42
2023-02-16T22:43:55.058Z,21.80
2023-02-16T22:46:23.278Z,21.88
2023-02-16T22:48:50.980Z,20.10
2023-02-16T22:51:19.554Z,20.30
2023-02-16T22:53:47.337Z,21.98
2023-02-16T22:56:16.398Z,21.00
2023-02-16T22:58:44.173Z,20.55
2023-02-16T23:01:14.877Z,22.38
2023-02-16T23:03:42.705Z,22.20
2023-02-16T23:06:19.295Z,21.23
2023-02-16T23:08:47.132Z,23.77
2023-02-16T23:11:14.367Z,21.95
2023-02-16T23:13:41.535Z,23.45
2023-02-16T23:16:12.398Z,21.30
2023-02-16T23:18:39.972Z,22.25
2023-02-16T23:21:23.142Z,22.08
2023-02-16T23:23:51.721Z,23.52
2023-02-16T23:26:20.298Z,22.67
2023-02-16T23:28:54.242Z,22.88
2023-02-16T23:31:22.064Z,22.30
2023-02-16T23:33:49.453Z,22.80
2023-02-16T23:36:16.966Z,24.33
2023-02-16T23:38:44.165Z,21.70
2023-02-16T23:41:13.476Z,24.73
2023-02-16T23:43:40.945Z,23.52
2023-02-16T23:46:09.529Z,24.92
2023-02-16T23:48:38.122Z,24.15
2023-02-16T23:51:05.800Z,22.27
2023-02-16T23:53:33.291Z,24.50
2023-02-16T23:56:01.531Z,24.88
2023-02-16T23:58:30.393Z,22.27
